createdAt,value
2023-04-01T00:00:01.181Z,8.30
2023-04-01T00:05:01.004Z,9.70
2023-04-01T00:10:00.753Z,8.70
2023-04-01T00:15:01.961Z,10.20
2023-04-01T00:20:00.906Z,10.70
2023-04-01T00:25:00.892Z,11.40
2023-04-01T00:30:00.835Z,14.80
2023-04-01T00:35:01.058Z,13.90
2023-04-01T00:40:00.748Z,16.00
2023-04-01T00:45:20.577Z,15.50
2023-04-01T00:50:01.165Z,14.10
2023-04-01T00:55:04.734Z,18.00
2023-04-01T01:00:04.619Z,13.20
2023-04-01T01:05:01.066Z,8.30
2023-04-01T01:10:06.199Z,12.30
2023-04-01T01:15:11.839Z,15.30
2023-04-01T01:20:22.972Z,14.00
2023-04-01T01:25:12.624Z,12.40
2023-04-01T01:30:20.575Z,15.30
2023-04-01T01:35:11.658Z,18.70
2023-04-01T01:40:04.850Z,20.00
2023-04-01T01:45:03.730Z,24.50
2023-04-01T01:50:01.294Z,15.80
2023-04-01T01:55:00.690Z,25.40
2023-04-01T02:00:07.013Z,22.00
2023-04-01T02:05:03.861Z,22.70
2023-04-01T02:10:01.080Z,17.30
2023-04-01T02:15:06.440Z,16.80
2023-04-01T02:20:05.725Z,12.90
2023-04-01T02:25:06.525Z,14.20
2023-04-01T02:30:00.851Z,15.20
2023-04-01T02:35:01.309Z,16.60
2023-04-01T02:40:01.778Z,14.60
2023-04-01T02:45:00.984Z,14.10
2023-04-01T02:50:00.707Z,10.10
2023-04-01T02:55:01.112Z,13.60
2023-04-01T03:00:01.190Z,10.40
2023-04-01T03:05:00.683Z,9.10
2023-04-01T03:10:00.783Z,10.00
2023-04-01T03:15:10.462Z,12.80
2023-04-01T03:20:00.711Z,11.50
2023-04-01T03:25:01.415Z,15.20
2023-04-01T03:30:00.999Z,12.70
2023-04-01T03:35:00.765Z,17.10
2023-04-01T03:40:01.007Z,11.70
2023-04-01T03:45:00.857Z,12.10
2023-04-01T03:50:00.811Z,15.00
2023-04-01T03:55:01.600Z,11.60
2023-04-01T04:00:01.422Z,11.40
2023-04-01T04:05:01.162Z,8.50
2023-04-01T04:10:00.947Z,11.00
2023-04-01T04:15:00.946Z,15.90
2023-04-01T04:20:01.242Z,16.40
2023-04-01T04:25:00.655Z,14.50
2023-04-01T04:30:00.832Z,15.20
2023-04-01T04:35:00.789Z,13.70
2023-04-01T04:40:00.715Z,14.10
2023-04-01T04:45:00.671Z,14.60
2023-04-01T04:50:00.689Z,12.80
2023-04-01T04:55:00.658Z,13.10
2023-04-01T05:00:01.514Z,15.40
2023-04-01T05:05:00.759Z,18.10
2023-04-01T05:10:00.707Z,19.00
2023-04-01T05:15:00.695Z,17.50
2023-04-01T05:20:01.475Z,17.40
2023-04-01T05:25:00.739Z,17.90
2023-04-01T05:30:00.747Z,19.60
2023-04-01T05:35:00.706Z,17.90
2023-04-01T05:40:00.970Z,17.80
2023-04-01T05:45:00.691Z,17.40
2023-04-01T05:50:00.722Z,19.90
2023-04-01T05:55:00.684Z,21.50
2023-04-01T06:00:01.324Z,22.70
2023-04-01T06:05:10.810Z,21.00
2023-04-01T06:10:00.677Z,23.00
2023-04-01T06:15:20.578Z,23.50
2023-04-01T06:20:12.351Z,18.60
2023-04-01T06:25:09.828Z,20.30
2023-04-01T06:30:14.510Z,21.70
2023-04-01T06:35:11.286Z,21.30
2023-04-01T06:40:12.330Z,22.20
2023-04-01T06:45:19.426Z,18.90
2023-04-01T06:50:14.703Z,20.80
2023-04-01T06:55:17.873Z,24.20
2023-04-01T07:00:11.012Z,22.30
2023-04-01T07:05:02.340Z,20.60
2023-04-01T07:10:06.046Z,20.80
2023-04-01T07:15:13.163Z,19.60
2023-04-01T07:20:00.718Z,21.70
2023-04-01T07:25:05.708Z,22.40
2023-04-01T07:30:01.275Z,19.90
2023-04-01T07:35:04.923Z,17.50
2023-04-01T07:40:11.634Z,21.50
2023-04-01T07:45:11.640Z,16.00
2023-04-01T07:50:02.706Z,17.30
2023-04-01T07:55:09.399Z,16.80
2023-04-01T08:00:08.775Z,16.60
2023-04-01T08:05:14.076Z,14.30
2023-04-01T08:10:19.133Z,16.30
2023-04-01T08:15:12.459Z,16.50
2023-04-01T08:20:17.974Z,14.60
2023-04-01T08:25:04.470Z,16.60
2023-04-01T08:30:13.672Z,17.40
2023-04-01T08:35:17.899Z,14.50
2023-04-01T08:40:10.642Z,16.70
2023-04-01T08:45:20.572Z,15.50
2023-04-01T08:50:20.576Z,18.10
2023-04-01T08:55:14.511Z,20.90
2023-04-01T09:00:11.708Z,20.10
2023-04-01T09:05:20.575Z,18.90
2023-04-01T09:10:20.640Z,22.20
2023-04-01T09:15:19.463Z,20.40
2023-04-01T09:20:20.637Z,20.80
2023-04-01T09:25:16.021Z,20.80
2023-04-01T09:30:13.932Z,18.50
2023-04-01T09:35:10.670Z,19.80
2023-04-01T09:40:16.952Z,22.10
2023-04-01T09:45:07.501Z,21.00
2023-04-01T09:50:10.647Z,23.50
2023-04-01T09:55:11.425Z,25.00
2023-04-01T10:00:18.169Z,24.20
2023-04-01T10:05:10.691Z,20.60
2023-04-01T10:10:20.584Z,21.70
2023-04-01T10:15:10.683Z,20.40
2023-04-01T10:20:20.577Z,20.20
2023-04-01T10:25:11.978Z,16.50
2023-04-01T10:30:20.587Z,16.90
2023-04-01T10:35:18.071Z,15.30
2023-04-01T10:40:20.620Z,14.90
2023-04-01T10:45:10.650Z,13.10
2023-04-01T10:50:13.875Z,13.30
2023-04-01T10:55:18.856Z,16.80
2023-04-01T11:00:10.911Z,21.60
2023-04-01T11:05:30.995Z,19.10
2023-04-01T11:10:20.568Z,15.90
2023-04-01T11:15:08.088Z,15.80
2023-04-01T11:20:13.117Z,16.20
2023-04-01T11:25:08.179Z,15.90
2023-04-01T11:30:09.123Z,10.80
2023-04-01T11:35:20.599Z,2.10
2023-04-01T11:40:12.542Z,3.60
2023-04-01T11:45:15.500Z,7.30
2023-04-01T11:50:00.661Z,11.30
2023-04-01T11:55:11.658Z,8.80
2023-04-01T12:00:17.713Z,9.90
2023-04-01T12:05:02.693Z,9.70
2023-04-01T12:10:20.589Z,9.10
2023-04-01T12:15:20.559Z,7.40
2023-04-01T12:20:11.686Z,8.20
2023-04-01T12:25:20.564Z,7.00
2023-04-01T12:30:09.170Z,7.00
2023-04-01T12:35:15.694Z,8.20
2023-04-01T12:40:11.646Z,6.80
2023-04-01T12:45:18.132Z,6.80
2023-04-01T12:50:13.900Z,6.70
2023-04-01T12:55:20.591Z,5.60
2023-04-01T13:00:11.092Z,6.80
2023-04-01T13:05:10.664Z,5.90
2023-04-01T13:10:20.174Z,5.80
2023-04-01T13:15:11.655Z,5.70
2023-04-01T13:20:20.590Z,6.60
2023-04-01T13:25:19.270Z,6.60
2023-04-01T13:30:03.406Z,8.50
2023-04-01T13:35:14.383Z,6.40
2023-04-01T13:40:17.961Z,3.80
2023-04-01T13:45:04.876Z,5.30
2023-04-01T13:50:20.591Z,5.10
2023-04-01T13:55:10.698Z,4.50
2023-04-01T14:00:17.283Z,6.10
2023-04-01T14:05:09.298Z,5.20
2023-04-01T14:10:09.199Z,6.80
2023-04-01T14:15:18.045Z,7.20
2023-04-01T14:20:11.636Z,10.00
2023-04-01T14:25:20.588Z,8.80
2023-04-01T14:30:20.576Z,8.80
2023-04-01T14:35:18.048Z,5.70
2023-04-01T14:40:12.173Z,5.00
2023-04-01T14:45:18.107Z,3.90
2023-04-01T14:50:09.037Z,5.50
2023-04-01T14:55:02.834Z,2.80
2023-04-01T15:00:14.898Z,2.40
2023-04-01T15:05:13.649Z,3.60
2023-04-01T15:10:12.472Z,3.70
2023-04-01T15:15:11.653Z,3.10
2023-04-01T15:20:23.516Z,4.60
2023-04-01T15:25:21.622Z,5.40
2023-04-01T15:30:10.663Z,5.90
2023-04-01T15:35:13.917Z,6.40
2023-04-01T15:40:18.001Z,5.70
2023-04-01T15:45:10.599Z,3.80
2023-04-01T15:50:20.627Z,5.00
2023-04-01T15:55:20.573Z,6.90
2023-04-01T16:00:18.816Z,5.00
2023-04-01T16:05:19.233Z,5.50
2023-04-01T16:10:20.576Z,8.00
2023-04-01T16:15:20.077Z,7.20
2023-04-01T16:20:17.039Z,6.40
2023-04-01T16:25:20.583Z,5.50
2023-04-01T16:30:18.126Z,5.00
2023-04-01T16:35:18.653Z,3.30
2023-04-01T16:40:14.128Z,4.10
2023-04-01T16:45:08.164Z,3.50
2023-04-01T16:50:10.630Z,3.80
2023-04-01T16:55:13.716Z,3.30
2023-04-01T17:00:10.773Z,4.80
2023-04-01T17:05:05.939Z,3.90
2023-04-01T17:10:13.825Z,3.00
2023-04-01T17:15:10.644Z,4.50
2023-04-01T17:20:05.927Z,4.00
2023-04-01T17:25:13.601Z,4.10
2023-04-01T17:30:14.569Z,4.20
2023-04-01T17:35:02.703Z,4.00
2023-04-01T17:40:13.110Z,3.50
2023-04-01T17:45:18.425Z,3.90
2023-04-01T17:50:09.056Z,4.80
2023-04-01T17:55:10.678Z,5.10
2023-04-01T18:00:13.210Z,4.60
2023-04-01T18:05:20.570Z,5.70
2023-04-01T18:10:17.739Z,5.40
2023-04-01T18:15:13.884Z,6.20
2023-04-01T18:20:07.590Z,6.40
2023-04-01T18:25:14.744Z,5.70
2023-04-01T18:30:12.422Z,5.90
2023-04-01T18:35:18.133Z,5.50
2023-04-01T18:40:13.969Z,5.20
2023-04-01T18:45:10.677Z,5.90
2023-04-01T18:50:20.572Z,6.70
2023-04-01T18:55:00.663Z,6.10
2023-04-01T19:00:14.739Z,7.00
2023-04-01T19:05:13.902Z,5.30
2023-04-01T19:10:13.558Z,5.30
2023-04-01T19:15:20.590Z,5.20
2023-04-01T19:20:18.090Z,5.50
2023-04-01T19:25:20.476Z,6.10
2023-04-01T19:30:18.169Z,6.00
2023-04-01T19:35:11.658Z,5.20
2023-04-01T19:40:20.031Z,6.40
2023-04-01T19:45:10.659Z,7.50
2023-04-01T19:50:11.646Z,6.30
2023-04-01T19:55:13.900Z,5.50
2023-04-01T20:00:06.519Z,5.40
2023-04-01T20:05:14.984Z,4.40
2023-04-01T20:10:09.309Z,6.30
2023-04-01T20:15:06.722Z,4.60
2023-04-01T20:20:08.019Z,5.80
2023-04-01T20:25:13.224Z,5.00
2023-04-01T20:30:20.575Z,3.90
2023-04-01T20:35:16.757Z,4.50
2023-04-01T20:40:20.599Z,5.30
2023-04-01T20:45:21.628Z,5.40
2023-04-01T20:50:13.922Z,6.10
2023-04-01T20:55:20.619Z,6.90
2023-04-01T21:00:18.252Z,7.00
2023-04-01T21:05:20.626Z,7.00
2023-04-01T21:10:20.578Z,7.80
2023-04-01T21:15:20.601Z,9.00
2023-04-01T21:20:10.653Z,9.80
2023-04-01T21:25:09.199Z,9.40
2023-04-01T21:30:17.914Z,10.80
2023-04-01T21:35:20.563Z,10.90
2023-04-01T21:40:03.919Z,10.90
2023-04-01T21:45:09.276Z,11.20
2023-04-01T21:50:01.710Z,9.70
2023-04-01T21:55:20.563Z,10.30
2023-04-01T22:00:20.641Z,10.60
2023-04-01T22:05:18.129Z,10.30
2023-04-01T22:10:04.084Z,10.30
2023-04-01T22:15:13.339Z,8.00
2023-04-01T22:20:11.716Z,6.60
2023-04-01T22:25:20.563Z,9.50
2023-04-01T22:30:16.037Z,7.50
2023-04-01T22:35:12.827Z,7.70
2023-04-01T22:40:14.515Z,7.60
2023-04-01T22:45:00.668Z,7.80
2023-04-01T22:50:09.875Z,8.90
2023-04-01T22:55:08.083Z,8.40
2023-04-01T23:00:14.802Z,8.00
2023-04-01T23:05:05.103Z,8.80
2023-04-01T23:10:05.668Z,9.30
2023-04-01T23:15:01.848Z,9.10
2023-04-01T23:20:20.582Z,9.40
2023-04-01T23:25:10.664Z,9.90
2023-04-01T23:30:01.141Z,9.60
2023-04-01T23:35:00.921Z,9.90
2023-04-01T23:40:00.843Z,9.80
2023-04-01T23:45:04.941Z,10.80
2023-04-01T23:50:04.916Z,10.90
2023-04-01T23:55:10.675Z,9.70
